Time;durP1;ratioP1;P1;durP2;ratioP2;P2;SDS_P1;SDS_P2;PMS_P1;PMS_P2;Temp;Humidity;BMP_temperature;BMP_pressure;BME280_temperature;BME280_humidity;BME280_pressure;Samples;Min_cycle;Max_cycle;Signal;HPM_P1;HPM_P2
2022/06/14 00:03:30;;;;;;;2.75;2.55;;;;;;;;;;5113472;27;20066;-65
2022/06/14 00:05:58;;;;;;;4.07;2.88;;;;;;;;;;5135962;27;20367;-64
2022/06/14 00:08:28;;;;;;;3.75;2.67;;;;;;;;;;5135669;27;20046;-63
2022/06/14 00:10:54;;;;;;;2.55;2.40;;;;;;;;;;5135519;27;20022;-63
2022/06/14 00:13:20;;;;;;;4.03;2.70;;;;;;;;;;5135591;27;20382;-64
2022/06/14 00:15:45;;;;;;;3.15;2.53;;;;;;;;;;5135726;27;20019;-65
2022/06/14 00:18:12;;;;;;;2.78;2.42;;;;;;;;;;5135707;27;20043;-63
2022/06/14 00:20:37;;;;;;;2.60;2.40;;;;;;;;;;5135396;27;20047;-64
2022/06/14 00:23:04;;;;;;;2.67;2.47;;;;;;;;;;5135155;27;20068;-65
2022/06/14 00:25:36;;;;;;;3.45;2.83;;;;;;;;;;5135235;27;20023;-67
2022/06/14 00:28:02;;;;;;;6.05;2.60;;;;;;;;;;5135409;27;20019;-66
2022/06/14 00:30:28;;;;;;;2.75;2.55;;;;;;;;;;5116741;27;20451;-66
2022/06/14 00:32:54;;;;;;;2.63;2.42;;;;;;;;;;5135378;27;20033;-64
2022/06/14 00:35:19;;;;;;;2.65;2.28;;;;;;;;;;5135262;27;20023;-63
2022/06/14 00:37:44;;;;;;;3.20;2.90;;;;;;;;;;5135232;27;20421;-67
2022/06/14 00:40:11;;;;;;;2.40;2.17;;;;;;;;;;5135466;27;20023;-68
2022/06/14 00:42:37;;;;;;;4.43;3.00;;;;;;;;;;5135200;27;20027;-68
2022/06/14 00:45:25;;;;;;;2.50;2.30;;;;;;;;;;5135171;27;20068;-67
2022/06/14 00:47:56;;;;;;;3.05;2.85;;;;;;;;;;5087531;27;20070;-63
2022/06/14 00:50:24;;;;;;;2.83;2.63;;;;;;;;;;5135192;27;20042;-64
2022/06/14 00:52:52;;;;;;;2.90;2.70;;;;;;;;;;5135401;27;20027;-65
2022/06/14 00:55:22;;;;;;;3.85;2.65;;;;;;;;;;5134999;27;20148;-64
2022/06/14 00:58:01;;;;;;;3.00;2.55;;;;;;;;;;5135208;27;20069;-65
2022/06/14 01:00:31;;;;;;;2.45;2.25;;;;;;;;;;5134922;27;20041;-65
2022/06/14 01:02:58;;;;;;;2.72;2.50;;;;;;;;;;5134842;28;20019;-64
2022/06/14 01:06:16;;;;;;;3.13;2.50;;;;;;;;;;5134880;28;20039;-64
2022/06/14 01:08:17;;;;;;;2.15;1.92;;;;;;;;;;5127792;28;20043;-65
2022/06/14 01:10:47;;;;;;;2.42;2.13;;;;;;;;;;5134938;28;20015;-67
2022/06/14 01:13:16;;;;;;;2.30;2.20;;;;;;;;;;5134651;28;20032;-67
2022/06/14 01:15:42;;;;;;;4.35;2.17;;;;;;;;;;5134981;28;20019;-68
2022/06/14 01:18:12;;;;;;;2.17;2.05;;;;;;;;;;5135246;27;20087;-67
2022/06/14 01:20:38;;;;;;;4.20;2.37;;;;;;;;;;5138516;27;20043;-66
2022/06/14 01:23:08;;;;;;;3.00;2.10;;;;;;;;;;5138534;27;20031;-66
2022/06/14 01:25:36;;;;;;;2.72;2.40;;;;;;;;;;5138643;27;20042;-66
2022/06/14 01:28:02;;;;;;;3.75;2.15;;;;;;;;;;5138945;27;20023;-67
2022/06/14 01:30:31;;;;;;;2.20;2.00;;;;;;;;;;5138889;27;20022;-68
2022/06/14 01:32:56;;;;;;;2.28;2.08;;;;;;;;;;5138901;27;20035;-67
2022/06/14 01:35:23;;;;;;;2.47;2.22;;;;;;;;;;5138972;27;20023;-68
2022/06/14 01:37:50;;;;;;;2.33;2.13;;;;;;;;;;5138448;27;20042;-68
2022/06/14 01:40:16;;;;;;;2.38;2.08;;;;;;;;;;5138522;27;20031;-67
2022/06/14 01:42:59;;;;;;;2.28;2.08;;;;;;;;;;5138764;27;20375;-68
2022/06/14 01:45:43;;;;;;;2.45;2.05;;;;;;;;;;5138555;27;20042;-67
2022/06/14 01:48:12;;;;;;;2.38;2.03;;;;;;;;;;5138692;27;20451;-67
2022/06/14 01:53:53;;;;;;;5.95;2.40;;;;;;;;;;5120007;27;20527;-68
2022/06/14 01:56:19;;;;;;;3.47;2.65;;;;;;;;;;5138727;27;20401;-67
2022/06/14 01:58:44;;;;;;;6.55;2.80;;;;;;;;;;5138525;27;20080;-67
2022/06/14 02:01:24;;;;;;;8.00;2.80;;;;;;;;;;5138354;27;20035;-67
2022/06/14 02:06:40;;;;;;;3.42;2.42;;;;;;;;;;5138283;27;20034;-68
2022/06/14 02:09:09;;;;;;;7.72;3.10;;;;;;;;;;5138147;27;20026;-67
2022/06/14 02:11:35;;;;;;;5.53;2.85;;;;;;;;;;5138316;27;20033;-66
2022/06/14 02:14:13;;;;;;;3.17;2.67;;;;;;;;;;5137918;27;20019;-67
2022/06/14 02:16:41;;;;;;;3.47;2.60;;;;;;;;;;5138234;27;20035;-66
2022/06/14 02:19:09;;;;;;;3.03;2.75;;;;;;;;;;5138253;27;20042;-68
2022/06/14 02:21:52;;;;;;;4.05;3.70;;;;;;;;;;5138064;27;20043;-67
2022/06/14 02:24:29;;;;;;;3.90;3.50;;;;;;;;;;5137759;27;20027;-67
2022/06/14 02:27:00;;;;;;;3.50;3.25;;;;;;;;;;5119152;27;20024;-67
2022/06/14 02:29:30;;;;;;;3.47;3.17;;;;;;;;;;5119181;27;20027;-67
2022/06/14 02:31:58;;;;;;;3.20;3.00;;;;;;;;;;5137685;27;20091;-67
2022/06/14 02:34:27;;;;;;;3.65;3.33;;;;;;;;;;5137958;27;20035;-67
2022/06/14 02:37:01;;;;;;;3.63;3.33;;;;;;;;;;5137885;27;20374;-67
2022/06/14 02:39:31;;;;;;;3.75;3.35;;;;;;;;;;5137713;27;20027;-67
2022/06/14 02:42:01;;;;;;;5.00;3.65;;;;;;;;;;5119433;27;20047;-67
2022/06/14 02:44:26;;;;;;;;;;;;;;;;;;5138215;27;20032;-66
2022/06/14 02:46:57;;;;;;;3.08;2.88;;;;;;;;;;5137385;27;19910;-66
2022/06/14 02:49:30;;;;;;;3.40;3.08;;;;;;;;;;5137623;27;20476;-67
2022/06/14 02:51:59;;;;;;;3.50;3.20;;;;;;;;;;5119015;27;20120;-67
2022/06/14 02:54:27;;;;;;;3.42;3.13;;;;;;;;;;5137400;27;20011;-67
2022/06/14 02:57:02;;;;;;;3.42;3.22;;;;;;;;;;5137019;27;20023;-67
2022/06/14 02:59:33;;;;;;;2.85;2.65;;;;;;;;;;5137428;27;20063;-67
2022/06/14 03:02:00;;;;;;;3.20;3.00;;;;;;;;;;5137477;27;20035;-68
2022/06/14 03:04:28;;;;;;;4.03;3.72;;;;;;;;;;5137089;27;20026;-67
2022/06/14 03:06:58;;;;;;;4.25;3.97;;;;;;;;;;5137048;27;20478;-68
2022/06/14 03:09:25;;;;;;;4.35;4.05;;;;;;;;;;5118743;27;20023;-67
2022/06/14 03:11:57;;;;;;;4.18;3.88;;;;;;;;;;5136931;27;20023;-67
2022/06/14 03:14:28;;;;;;;4.20;3.90;;;;;;;;;;5136938;27;20027;-66
2022/06/14 03:17:12;;;;;;;3.60;3.40;;;;;;;;;;5136883;27;20039;-66
2022/06/14 03:19:44;;;;;;;4.30;4.00;;;;;;;;;;5136719;27;20379;-68
2022/06/14 03:22:30;;;;;;;4.53;4.22;;;;;;;;;;5136761;27;20381;-67
2022/06/14 03:24:59;;;;;;;3.58;3.35;;;;;;;;;;5136961;27;20035;-68
2022/06/14 03:27:30;;;;;;;3.65;3.45;;;;;;;;;;5136938;27;20019;-67
2022/06/14 03:30:00;;;;;;;3.90;3.70;;;;;;;;;;5136744;27;20455;-68
2022/06/14 03:32:25;;;;;;;4.30;4.00;;;;;;;;;;5136204;27;20467;-68
2022/06/14 03:35:02;;;;;;;4.65;4.25;;;;;;;;;;5136798;27;20050;-72
2022/06/14 03:37:27;;;;;;;5.15;4.75;;;;;;;;;;5136592;27;20037;-70
2022/06/14 03:39:59;;;;;;;7.15;6.28;;;;;;;;;;5117887;27;20031;-71
2022/06/14 03:42:25;;;;;;;5.53;4.55;;;;;;;;;;5135588;27;20035;-70
2022/06/14 03:44:50;;;;;;;4.20;3.80;;;;;;;;;;5136412;27;20018;-70
2022/06/14 03:47:21;;;;;;;3.97;3.78;;;;;;;;;;5136369;27;20026;-70
2022/06/14 03:49:46;;;;;;;;;;;;;;;;;;5136804;27;20065;-70
2022/06/14 03:52:30;;;;;;;3.60;3.40;;;;;;;;;;5118140;27;19907;-70
2022/06/14 03:54:55;;;;;;;3.60;3.40;;;;;;;;;;5136369;27;20031;-70
2022/06/14 03:57:21;;;;;;;3.58;3.38;;;;;;;;;;5136158;27;20379;-70
2022/06/14 03:59:58;;;;;;;3.88;3.67;;;;;;;;;;5135970;27;20033;-70
2022/06/14 04:05:32;;;;;;;3.83;3.53;;;;;;;;;;5135213;27;20031;-70
2022/06/14 04:07:58;;;;;;;;;;;;;;;;;;5135130;27;20019;-70
2022/06/14 04:10:44;;;;;;;4.50;4.17;;;;;;;;;;5134786;27;19907;-69
2022/06/14 04:13:17;;;;;;;4.15;3.85;;;;;;;;;;5134375;27;20312;-69
2022/06/14 04:15:51;;;;;;;4.05;3.83;;;;;;;;;;5134851;27;20486;-71
2022/06/14 04:18:40;;;;;;;4.82;4.43;;;;;;;;;;5134943;27;20481;-71
2022/06/14 04:21:25;;;;;;;4.50;4.20;;;;;;;;;;5134761;27;20385;-71
2022/06/14 04:23:57;;;;;;;4.68;4.28;;;;;;;;;;5116461;27;20027;-71
2022/06/14 04:26:23;;;;;;;4.75;4.35;;;;;;;;;;5134440;27;20661;-71
2022/06/14 04:28:51;;;;;;;4.45;4.15;;;;;;;;;;5134038;27;20098;-70
2022/06/14 04:31:43;;;;;;;4.07;3.78;;;;;;;;;;5134635;27;20031;-71
2022/06/14 04:34:16;;;;;;;4.50;4.15;;;;;;;;;;5077126;27;20043;-70
2022/06/14 04:36:47;;;;;;;3.88;3.60;;;;;;;;;;5133687;27;20023;-71
2022/06/14 04:39:19;;;;;;;4.88;4.10;;;;;;;;;;5132736;27;20065;-71
2022/06/14 04:41:55;;;;;;;3.60;3.40;;;;;;;;;;5133512;27;20426;-71
2022/06/14 04:44:43;;;;;;;4.40;4.00;;;;;;;;;;5133331;27;20034;-71
2022/06/14 04:47:08;;;;;;;5.18;3.75;;;;;;;;;;5132480;27;20031;-71
2022/06/14 04:49:41;;;;;;;3.70;3.05;;;;;;;;;;5132655;27;20015;-70
2022/06/14 04:52:10;;;;;;;3.33;3.03;;;;;;;;;;5133657;27;20031;-70
2022/06/14 04:54:46;;;;;;;3.45;3.25;;;;;;;;;;5133278;27;20091;-71
2022/06/14 04:57:19;;;;;;;3.35;3.15;;;;;;;;;;5133895;27;20109;-70
2022/06/14 04:59:47;;;;;;;6.47;2.95;;;;;;;;;;5134432;27;20033;-71
2022/06/14 05:02:17;;;;;;;3.33;3.03;;;;;;;;;;5134116;27;20024;-70
2022/06/14 05:04:49;;;;;;;3.13;2.92;;;;;;;;;;5133940;28;20075;-70
2022/06/14 05:07:18;;;;;;;3.65;2.83;;;;;;;;;;5134093;28;20027;-71
2022/06/14 05:09:59;;;;;;;2.95;2.72;;;;;;;;;;5133650;28;20102;-70
2022/06/14 05:12:30;;;;;;;3.53;3.22;;;;;;;;;;5133074;28;20023;-71
2022/06/14 05:14:55;;;;;;;2.90;2.70;;;;;;;;;;5133237;28;20459;-70
2022/06/14 05:17:30;;;;;;;2.90;2.63;;;;;;;;;;5133162;28;20095;-70
2022/06/14 05:19:56;;;;;;;3.13;2.83;;;;;;;;;;5133569;28;20031;-70
2022/06/14 05:22:33;;;;;;;2.85;2.65;;;;;;;;;;5133713;28;20436;-70
2022/06/14 05:24:59;;;;;;;2.90;2.70;;;;;;;;;;5115244;28;20023;-70
2022/06/14 05:27:32;;;;;;;2.40;2.30;;;;;;;;;;5133750;28;20102;-70
2022/06/14 05:30:09;;;;;;;2.65;2.38;;;;;;;;;;5115578;28;20027;-70
2022/06/14 05:32:38;;;;;;;2.47;2.30;;;;;;;;;;5133907;28;20344;-70
2022/06/14 05:35:13;;;;;;;3.83;2.63;;;;;;;;;;5134046;28;20023;-70
2022/06/14 05:37:38;;;;;;;2.33;2.22;;;;;;;;;;5133996;28;20039;-70
2022/06/14 05:40:25;;;;;;;2.33;2.13;;;;;;;;;;5133971;28;20027;-69
2022/06/14 05:43:00;;;;;;;2.33;2.13;;;;;;;;;;5115406;28;20436;-70
2022/06/14 05:45:27;;;;;;;2.30;2.10;;;;;;;;;;5133034;28;20490;-69
2022/06/14 05:48:03;;;;;;;2.60;2.03;;;;;;;;;;5133089;28;20382;-70
2022/06/14 05:50:31;;;;;;;3.50;2.58;;;;;;;;;;5133015;28;20311;-69
2022/06/14 05:53:35;;;;;;;2.08;1.95;;;;;;;;;;5132997;28;20026;-70
2022/06/14 05:56:11;;;;;;;2.17;1.98;;;;;;;;;;5029660;28;20101;-69
2022/06/14 05:58:44;;;;;;;2.60;2.10;;;;;;;;;;5029787;28;20121;-72
2022/06/14 06:01:12;;;;;;;1.67;1.58;;;;;;;;;;5090156;28;20074;-72
2022/06/14 06:03:43;;;;;;;2.72;1.70;;;;;;;;;;5133730;28;20027;-69
2022/06/14 06:06:17;;;;;;;4.18;1.83;;;;;;;;;;5137012;27;20023;-68
2022/06/14 06:08:48;;;;;;;3.55;1.90;;;;;;;;;;5136702;27;20019;-68
2022/06/14 06:11:13;;;;;;;2.60;1.90;;;;;;;;;;5136563;27;20103;-68
2022/06/14 06:13:41;;;;;;;3.00;2.00;;;;;;;;;;5136685;27;20027;-68
2022/06/14 06:16:07;;;;;;;2.88;1.80;;;;;;;;;;5136870;27;20256;-68
2022/06/14 06:18:39;;;;;;;2.05;1.95;;;;;;;;;;5136579;27;20509;-67
2022/06/14 06:21:34;;;;;;;2.88;2.10;;;;;;;;;;5136260;27;20429;-67
2022/06/14 06:24:02;;;;;;;2.97;1.95;;;;;;;;;;5114357;27;20088;-68
2022/06/14 06:26:28;;;;;;;3.35;1.77;;;;;;;;;;5136342;27;20410;-66
2022/06/14 06:29:03;;;;;;;1.52;1.33;;;;;;;;;;5136300;27;20030;-64
2022/06/14 06:31:33;;;;;;;3.53;1.80;;;;;;;;;;5117812;27;20490;-63
2022/06/14 06:34:02;;;;;;;3.83;2.10;;;;;;;;;;5136145;27;20506;-64
2022/06/14 06:36:49;;;;;;;3.00;1.42;;;;;;;;;;5137135;27;20015;-63
2022/06/14 06:39:25;;;;;;;2.10;1.45;;;;;;;;;;5137298;27;20028;-64
2022/06/14 06:41:55;;;;;;;2.00;1.52;;;;;;;;;;5137249;27;20390;-65
2022/06/14 06:44:20;;;;;;;4.32;1.75;;;;;;;;;;5118584;27;20027;-64
2022/06/14 06:46:48;;;;;;;1.60;1.50;;;;;;;;;;5137053;27;20022;-65
2022/06/14 06:49:16;;;;;;;4.47;1.50;;;;;;;;;;5136894;27;20265;-64
2022/06/14 06:51:50;;;;;;;3.30;1.75;;;;;;;;;;5136894;27;20030;-65
2022/06/14 06:54:22;;;;;;;1.63;1.52;;;;;;;;;;5118588;27;20034;-64
2022/06/14 06:56:49;;;;;;;1.60;1.50;;;;;;;;;;5118637;27;20034;-63
2022/06/14 06:59:21;;;;;;;1.88;1.77;;;;;;;;;;5137036;27;20153;-63
2022/06/14 07:01:48;;;;;;;1.55;1.40;;;;;;;;;;5136695;27;20027;-64
2022/06/14 07:04:18;;;;;;;1.75;1.30;;;;;;;;;;5136554;27;20023;-64
2022/06/14 07:06:44;;;;;;;;;;;;;;;;;;5137037;27;20027;-63
2022/06/14 07:09:13;;;;;;;2.38;1.25;;;;;;;;;;5136662;27;19910;-64
2022/06/14 07:11:44;;;;;;;1.40;1.30;;;;;;;;;;5136505;27;20027;-63
2022/06/14 07:14:22;;;;;;;1.33;1.10;;;;;;;;;;5136547;27;20031;-65
2022/06/14 07:17:03;;;;;;;1.58;1.40;;;;;;;;;;5135447;27;20027;-64
2022/06/14 07:19:29;;;;;;;1.33;1.20;;;;;;;;;;5136230;27;20110;-64
2022/06/14 07:21:58;;;;;;;1.42;1.27;;;;;;;;;;5118021;27;20071;-64
2022/06/14 07:24:29;;;;;;;1.42;1.20;;;;;;;;;;5136212;27;20497;-65
2022/06/14 07:27:05;;;;;;;1.50;1.08;;;;;;;;;;5136252;27;20048;-65
2022/06/14 07:29:40;;;;;;;2.35;1.15;;;;;;;;;;5136174;27;20114;-65
2022/06/14 07:32:14;;;;;;;1.02;0.88;;;;;;;;;;5136428;27;20035;-64
2022/06/14 07:34:40;;;;;;;1.10;1.10;;;;;;;;;;5135999;27;20467;-63
2022/06/14 07:37:26;;;;;;;2.05;0.80;;;;;;;;;;5136042;27;20030;-66
2022/06/14 07:39:57;;;;;;;0.80;0.80;;;;;;;;;;5082683;27;20069;-66
2022/06/14 07:42:35;;;;;;;1.23;0.93;;;;;;;;;;5134878;27;20031;-66
2022/06/14 07:45:07;;;;;;;1.88;1.10;;;;;;;;;;5134880;27;20088;-66
2022/06/14 07:47:36;;;;;;;3.75;1.15;;;;;;;;;;5116372;27;20029;-66
2022/06/14 07:50:15;;;;;;;0.57;0.57;;;;;;;;;;5134789;27;20371;-66
2022/06/14 07:52:48;;;;;;;1.17;0.90;;;;;;;;;;5134684;27;20105;-66
2022/06/14 07:55:18;;;;;;;1.63;0.90;;;;;;;;;;5116184;27;20030;-66
2022/06/14 07:57:45;;;;;;;;;;;;;;;;;;5116802;27;20390;-66
2022/06/14 08:02:59;;;;;;;1.80;0.80;;;;;;;;;;5134317;27;20023;-67
2022/06/14 08:05:27;;;;;;;0.73;0.70;;;;;;;;;;5134413;27;20111;-66
2022/06/14 08:07:52;;;;;;;1.33;0.70;;;;;;;;;;5134360;27;20026;-66
2022/06/14 08:10:20;;;;;;;1.48;0.80;;;;;;;;;;5134394;27;20055;-70
2022/06/14 08:12:52;;;;;;;1.00;0.85;;;;;;;;;;5134425;27;20046;-66
2022/06/14 08:15:20;;;;;;;0.70;0.70;;;;;;;;;;5134278;27;20034;-65
2022/06/14 08:18:08;;;;;;;1.13;0.82;;;;;;;;;;5134199;27;20019;-65
2022/06/14 08:20:44;;;;;;;2.33;0.70;;;;;;;;;;5120532;27;20039;-65
2022/06/14 08:23:13;;;;;;;4.03;0.98;;;;;;;;;;5135099;27;20027;-66
2022/06/14 08:25:41;;;;;;;2.25;1.00;;;;;;;;;;5135119;27;20019;-65
2022/06/14 08:28:09;;;;;;;2.22;0.70;;;;;;;;;;5134857;27;20031;-64
2022/06/14 08:30:44;;;;;;;2.17;0.70;;;;;;;;;;5134996;27;20015;-66
2022/06/14 08:33:24;;;;;;;2.65;1.02;;;;;;;;;;5135029;27;20099;-66
2022/06/14 08:35:51;;;;;;;0.70;0.70;;;;;;;;;;5134982;27;20027;-66
2022/06/14 08:38:22;;;;;;;1.75;0.90;;;;;;;;;;5134963;27;20025;-65
2022/06/14 08:40:56;;;;;;;1.02;0.93;;;;;;;;;;5134898;27;20027;-65
2022/06/14 08:43:26;;;;;;;1.00;0.80;;;;;;;;;;5134777;27;20033;-66
2022/06/14 08:46:11;;;;;;;1.73;0.90;;;;;;;;;;5116592;27;20469;-66
2022/06/14 08:48:39;;;;;;;1.20;0.80;;;;;;;;;;5134758;27;20030;-66
2022/06/14 08:51:13;;;;;;;1.95;0.98;;;;;;;;;;5134706;27;20015;-66
2022/06/14 08:53:38;;;;;;;0.65;0.65;;;;;;;;;;5134711;27;20031;-67
2022/06/14 08:56:03;;;;;;;1.55;1.20;;;;;;;;;;5116216;27;20073;-67
2022/06/14 08:58:37;;;;;;;1.45;0.90;;;;;;;;;;5116362;27;20035;-67
2022/06/14 09:01:21;;;;;;;1.08;0.80;;;;;;;;;;5134619;27;20031;-65
2022/06/14 09:04:03;;;;;;;0.82;0.82;;;;;;;;;;5134314;27;20107;-66
2022/06/14 09:06:41;;;;;;;1.70;1.00;;;;;;;;;;5134107;28;20028;-70
2022/06/14 09:09:36;;;;;;;1.77;0.93;;;;;;;;;;5134186;28;20080;-73
2022/06/14 09:12:20;;;;;;;2.70;1.00;;;;;;;;;;5134444;28;20049;-73
2022/06/14 09:14:45;;;;;;;3.05;1.30;;;;;;;;;;5134719;28;20038;-72
2022/06/14 09:17:20;;;;;;;0.85;0.85;;;;;;;;;;5135041;28;20023;-72
2022/06/14 09:20:08;;;;;;;0.77;0.77;;;;;;;;;;5134596;28;20104;-72
2022/06/14 09:22:37;;;;;;;2.80;1.15;;;;;;;;;;5134452;28;20035;-72
2022/06/14 09:25:08;;;;;;;0.70;0.70;;;;;;;;;;5134165;28;20479;-72
2022/06/14 09:27:40;;;;;;;1.20;0.77;;;;;;;;;;5134355;28;20034;-72
2022/06/14 09:30:13;;;;;;;2.30;1.10;;;;;;;;;;5134539;28;20519;-72
2022/06/14 09:33:09;;;;;;;1.73;0.85;;;;;;;;;;5134813;28;20031;-72
2022/06/14 09:35:24;;;;;;;2.88;0.70;;;;;;;;;;5134238;28;20027;-72
2022/06/14 09:38:09;;;;;;;0.70;0.70;;;;;;;;;;5133881;28;20098;-72
2022/06/14 09:40:38;;;;;;;2.00;0.80;;;;;;;;;;5119762;27;20315;-72
2022/06/14 09:43:20;;;;;;;0.73;0.70;;;;;;;;;;5140459;22;20041;-66
2022/06/14 09:45:52;;;;;;;0.68;0.68;;;;;;;;;;5074017;28;20124;-72
2022/06/14 09:48:24;;;;;;;3.17;0.90;;;;;;;;;;5076947;28;20034;-72
2022/06/14 09:51:04;;;;;;;0.80;0.50;;;;;;;;;;5077423;28;20048;-73
2022/06/14 09:53:39;;;;;;;1.45;0.80;;;;;;;;;;5059298;28;20040;-72
2022/06/14 09:56:16;;;;;;;0.65;0.65;;;;;;;;;;5076738;28;20024;-72
2022/06/14 09:59:00;;;;;;;0.90;0.75;;;;;;;;;;5077461;28;20043;-72
2022/06/14 10:01:33;;;;;;;1.05;0.70;;;;;;;;;;5077131;28;20356;-72
2022/06/14 10:04:01;;;;;;;1.08;0.80;;;;;;;;;;5077195;28;20595;-73
2022/06/14 10:06:48;;;;;;;2.28;0.70;;;;;;;;;;5077042;28;20436;-73
2022/06/14 10:09:32;;;;;;;1.25;0.70;;;;;;;;;;5076647;28;20040;-72
2022/06/14 10:12:15;;;;;;;1.20;0.63;;;;;;;;;;5077249;28;20075;-73
2022/06/14 10:14:53;;;;;;;0.75;0.65;;;;;;;;;;5076599;28;20032;-72
2022/06/14 10:17:21;;;;;;;1.30;0.70;;;;;;;;;;5076617;28;20047;-72
2022/06/14 10:20:00;;;;;;;0.57;0.50;;;;;;;;;;5076409;28;20052;-73
2022/06/14 10:22:49;;;;;;;0.90;0.70;;;;;;;;;;5076397;28;20064;-73
2022/06/14 10:25:35;;;;;;;0.65;0.65;;;;;;;;;;5065324;28;20052;-72
2022/06/14 10:28:19;;;;;;;1.15;0.70;;;;;;;;;;5075843;28;20053;-72
2022/06/14 10:30:51;;;;;;;1.23;0.47;;;;;;;;;;5076333;28;20042;-72
2022/06/14 10:33:17;;;;;;;1.60;0.60;;;;;;;;;;5076569;28;20025;-72
2022/06/14 10:36:07;;;;;;;1.73;0.77;;;;;;;;;;5076685;28;20028;-72
2022/06/14 10:38:32;;;;;;;;;;;;;;;;;;5076898;28;20024;-72
2022/06/14 10:41:04;;;;;;;2.25;1.15;;;;;;;;;;5076503;28;19995;-72
2022/06/14 10:43:42;;;;;;;0.80;0.80;;;;;;;;;;5075894;28;20020;-72
2022/06/14 10:46:26;;;;;;;2.78;1.10;;;;;;;;;;5076289;28;20040;-72
2022/06/14 10:49:14;;;;;;;1.45;0.70;;;;;;;;;;5076626;28;20056;-73
2022/06/14 10:51:42;;;;;;;0.82;0.68;;;;;;;;;;5075111;28;20078;-72
2022/06/14 10:54:11;;;;;;;2.05;0.73;;;;;;;;;;5076321;28;20449;-73
2022/06/14 10:56:44;;;;;;;1.58;0.50;;;;;;;;;;5076151;28;20466;-72
2022/06/14 10:59:31;;;;;;;0.77;0.60;;;;;;;;;;5074944;28;20384;-72
2022/06/14 11:02:12;;;;;;;1.05;0.77;;;;;;;;;;5058019;28;20119;-72
2022/06/14 11:04:47;;;;;;;1.45;0.65;;;;;;;;;;5075190;28;20552;-72
2022/06/14 11:07:29;;;;;;;0.70;0.52;;;;;;;;;;5075055;28;20365;-72
2022/06/14 11:10:04;;;;;;;0.93;0.70;;;;;;;;;;5075648;28;20029;-72
2022/06/14 11:12:42;;;;;;;1.45;0.70;;;;;;;;;;5074987;28;20024;-72
2022/06/14 11:15:12;;;;;;;2.03;0.77;;;;;;;;;;5075268;28;20037;-72
2022/06/14 11:17:37;;;;;;;1.05;0.60;;;;;;;;;;5075194;28;20560;-72
2022/06/14 11:20:05;;;;;;;1.27;0.70;;;;;;;;;;5075496;28;20068;-72
2022/06/14 11:22:35;;;;;;;3.00;0.68;;;;;;;;;;5073947;28;20028;-72
2022/06/14 11:25:04;;;;;;;0.90;0.60;;;;;;;;;;5075243;28;20504;-72
2022/06/14 11:27:30;;;;;;;1.38;0.60;;;;;;;;;;5057156;28;20028;-72
2022/06/14 11:30:14;;;;;;;1.58;0.73;;;;;;;;;;5075711;28;20100;-72
2022/06/14 11:32:45;;;;;;;1.08;0.88;;;;;;;;;;5057525;28;20036;-72
2022/06/14 11:35:36;;;;;;;0.75;0.70;;;;;;;;;;5075030;28;20043;-72
2022/06/14 11:38:11;;;;;;;0.82;0.63;;;;;;;;;;5074359;28;20123;-72
2022/06/14 11:40:41;;;;;;;1.02;0.60;;;;;;;;;;5075187;28;20430;-72
2022/06/14 11:43:07;;;;;;;;;;;;;;;;;;5075354;28;20060;-73
2022/06/14 11:45:35;;;;;;;3.05;0.80;;;;;;;;;;5074993;28;20335;-74
2022/06/14 11:48:05;;;;;;;0.70;0.70;;;;;;;;;;5074703;28;20052;-73
2022/06/14 11:50:45;;;;;;;1.83;0.90;;;;;;;;;;5072838;28;20494;-73
2022/06/14 11:53:17;;;;;;;1.63;0.80;;;;;;;;;;5074009;28;20111;-73
2022/06/14 11:55:48;;;;;;;3.33;0.73;;;;;;;;;;5073846;28;20033;-74
2022/06/14 11:58:22;;;;;;;1.45;0.70;;;;;;;;;;5073397;28;20036;-73
2022/06/14 12:01:00;;;;;;;1.00;0.70;;;;;;;;;;5073427;28;20032;-73
2022/06/14 12:03:41;;;;;;;0.70;0.70;;;;;;;;;;5071433;28;20446;-73
2022/06/14 12:06:26;;;;;;;3.65;0.65;;;;;;;;;;5073298;28;20418;-73
2022/06/14 12:09:17;;;;;;;1.83;0.80;;;;;;;;;;5073224;28;20046;-73
2022/06/14 12:11:54;;;;;;;2.10;0.90;;;;;;;;;;5073172;28;20039;-72
2022/06/14 12:14:46;;;;;;;1.75;0.80;;;;;;;;;;5073092;28;20161;-73
2022/06/14 12:17:20;;;;;;;2.03;0.80;;;;;;;;;;5069327;28;20134;-73
2022/06/14 12:19:48;;;;;;;3.10;0.90;;;;;;;;;;5072983;28;20029;-72
2022/06/14 12:22:26;;;;;;;1.20;0.70;;;;;;;;;;5072961;28;20082;-72
2022/06/14 12:27:39;;;;;;;1.23;0.60;;;;;;;;;;5072875;28;20102;-72
2022/06/14 12:30:05;;;;;;;0.90;0.73;;;;;;;;;;5072860;28;20452;-73
2022/06/14 12:32:57;;;;;;;0.90;0.80;;;;;;;;;;5072806;28;20032;-72
2022/06/14 12:35:26;;;;;;;1.58;0.50;;;;;;;;;;5068769;28;20484;-72
2022/06/14 12:38:01;;;;;;;2.30;0.77;;;;;;;;;;5072711;28;20056;-72
2022/06/14 12:40:41;;;;;;;2.53;0.80;;;;;;;;;;5072726;28;20035;-73
2022/06/14 12:43:21;;;;;;;0.93;0.88;;;;;;;;;;5072679;28;20032;-71
2022/06/14 12:45:56;;;;;;;1.13;0.70;;;;;;;;;;5072809;28;20041;-65
2022/06/14 12:48:21;;;;;;;1.65;0.57;;;;;;;;;;5072799;28;20024;-72
2022/06/14 12:50:52;;;;;;;1.88;0.73;;;;;;;;;;5072997;28;20040;-72
2022/06/14 12:53:35;;;;;;;1.25;0.65;;;;;;;;;;5072499;28;20043;-73
2022/06/14 12:56:11;;;;;;;1.25;0.70;;;;;;;;;;5072493;28;20127;-73
2022/06/14 12:58:41;;;;;;;0.93;0.60;;;;;;;;;;5072508;28;20020;-72
2022/06/14 13:01:28;;;;;;;3.15;0.90;;;;;;;;;;5072517;28;20411;-72
2022/06/14 13:03:55;;;;;;;1.98;0.80;;;;;;;;;;5054364;28;20028;-72
2022/06/14 13:06:39;;;;;;;1.73;0.80;;;;;;;;;;5072705;28;20484;-72
2022/06/14 13:09:19;;;;;;;1.70;0.82;;;;;;;;;;5072386;28;20025;-72
2022/06/14 13:11:49;;;;;;;1.60;0.63;;;;;;;;;;5072432;28;20032;-73
2022/06/14 13:14:17;;;;;;;1.70;0.77;;;;;;;;;;5072772;28;20025;-72
2022/06/14 13:16:49;;;;;;;0.75;0.60;;;;;;;;;;5076507;28;20438;-72
2022/06/14 13:19:21;;;;;;;1.48;0.70;;;;;;;;;;5075157;28;20392;-73
2022/06/14 13:22:06;;;;;;;1.83;0.65;;;;;;;;;;5076344;28;20044;-72
2022/06/14 13:24:36;;;;;;;1.63;0.63;;;;;;;;;;5076255;28;20057;-73
2022/06/14 13:27:11;;;;;;;1.30;0.75;;;;;;;;;;5058437;28;20487;-72
2022/06/14 13:29:37;;;;;;;0.98;0.60;;;;;;;;;;5076329;28;20103;-72
2022/06/14 13:32:17;;;;;;;2.20;1.00;;;;;;;;;;5076198;28;20009;-72
2022/06/14 13:34:49;;;;;;;1.00;0.70;;;;;;;;;;5076199;28;20036;-73
2022/06/14 13:37:23;;;;;;;1.30;0.80;;;;;;;;;;5076138;28;20020;-74
2022/06/14 13:39:51;;;;;;;1.08;0.52;;;;;;;;;;5076048;28;20142;-73
2022/06/14 13:42:39;;;;;;;1.63;0.63;;;;;;;;;;5076267;28;20020;-73
2022/06/14 13:45:14;;;;;;;0.75;0.52;;;;;;;;;;5075728;28;20060;-73
2022/06/14 13:47:42;;;;;;;2.00;0.63;;;;;;;;;;5075965;28;20115;-73
2022/06/14 13:50:28;;;;;;;1.50;0.60;;;;;;;;;;5075862;28;20371;-73
2022/06/14 13:53:07;;;;;;;1.30;0.70;;;;;;;;;;5057049;28;20060;-73
2022/06/14 13:55:51;;;;;;;3.45;0.70;;;;;;;;;;5075745;28;20116;-73
2022/06/14 13:58:19;;;;;;;1.55;0.70;;;;;;;;;;5075712;28;20025;-72
2022/06/14 14:00:56;;;;;;;0.70;0.70;;;;;;;;;;5076485;28;20016;-73
2022/06/14 14:03:27;;;;;;;1.13;0.70;;;;;;;;;;5076592;28;20028;-73
2022/06/14 14:06:01;;;;;;;1.20;0.60;;;;;;;;;;5075549;28;20140;-72
2022/06/14 14:08:33;;;;;;;1.50;1.20;;;;;;;;;;5076998;28;20028;-73
2022/06/14 14:11:05;;;;;;;2.75;0.88;;;;;;;;;;5059362;28;20036;-68
2022/06/14 14:13:34;;;;;;;3.67;1.13;;;;;;;;;;5058966;28;20039;-69
2022/06/14 14:16:00;;;;;;;3.33;0.88;;;;;;;;;;5076405;28;20499;-70
2022/06/14 14:18:39;;;;;;;1.98;0.88;;;;;;;;;;5058619;28;20020;-70
2022/06/14 14:21:14;;;;;;;1.20;0.80;;;;;;;;;;5076478;28;20032;-71
2022/06/14 14:23:39;;;;;;;1.02;0.70;;;;;;;;;;5076683;28;20033;-70
2022/06/14 14:26:34;;;;;;;1.50;0.80;;;;;;;;;;5075604;28;20024;-70
2022/06/14 14:29:00;;;;;;;2.60;1.05;;;;;;;;;;5058509;28;20033;-70
2022/06/14 14:31:34;;;;;;;2.80;0.73;;;;;;;;;;5058511;28;20034;-69
2022/06/14 14:34:09;;;;;;;1.40;0.80;;;;;;;;;;5076186;28;20036;-69
2022/06/14 14:36:39;;;;;;;2.97;0.80;;;;;;;;;;5076209;28;20090;-70
2022/06/14 14:39:05;;;;;;;1.75;0.63;;;;;;;;;;5110263;22;20126;-69
2022/06/14 14:41:37;;;;;;;2.50;0.95;;;;;;;;;;5116702;28;20107;-64
2022/06/14 14:44:14;;;;;;;0.93;0.55;;;;;;;;;;5116228;28;20535;-64
2022/06/14 14:46:43;;;;;;;1.05;0.80;;;;;;;;;;5116448;28;20027;-65
2022/06/14 14:49:11;;;;;;;1.05;0.60;;;;;;;;;;5116550;28;20016;-64
2022/06/14 14:51:40;;;;;;;0.80;0.80;;;;;;;;;;5116467;28;20069;-63
2022/06/14 14:54:17;;;;;;;2.88;0.80;;;;;;;;;;5116427;28;20027;-65
2022/06/14 14:56:45;;;;;;;1.30;0.60;;;;;;;;;;5098428;28;20023;-64
2022/06/14 14:59:14;;;;;;;2.88;0.80;;;;;;;;;;5116350;28;20104;-64
2022/06/14 15:07:42;;;;;;;1.10;0.60;;;;;;;;;;5116443;28;20042;-64
2022/06/14 15:10:10;;;;;;;0.90;0.70;;;;;;;;;;5098413;28;20059;-63
2022/06/14 15:12:51;;;;;;;2.38;0.80;;;;;;;;;;5116357;28;20031;-64
2022/06/14 15:15:16;;;;;;;2.35;0.98;;;;;;;;;;5116595;28;20081;-64
2022/06/14 15:20:34;;;;;;;1.13;0.75;;;;;;;;;;5097632;28;20383;-64
2022/06/14 15:23:01;;;;;;;1.33;0.80;;;;;;;;;;5116085;28;20032;-63
2022/06/14 15:25:28;;;;;;;2.72;0.70;;;;;;;;;;5115534;28;20069;-63
2022/06/14 15:27:59;;;;;;;1.90;0.60;;;;;;;;;;5114734;28;20429;-63
2022/06/14 15:30:42;;;;;;;0.98;0.70;;;;;;;;;;5115748;28;20023;-64
2022/06/14 15:33:26;;;;;;;1.17;0.60;;;;;;;;;;5115176;28;20034;-64
2022/06/14 15:35:54;;;;;;;2.40;0.70;;;;;;;;;;5115544;28;20027;-65
2022/06/14 15:38:21;;;;;;;0.85;0.60;;;;;;;;;;5096385;28;20084;-64
2022/06/14 15:40:58;;;;;;;2.47;0.77;;;;;;;;;;5115542;28;20027;-65
2022/06/14 15:43:26;;;;;;;1.08;0.90;;;;;;;;;;5115708;28;20039;-64
2022/06/14 15:45:52;;;;;;;1.20;0.70;;;;;;;;;;5115470;28;20348;-64